map of REC home
Great Circle Mapper logo
REC - Airport
Location
City:  Recife, Pernambuco, Brazil
Name:Guararapes International Airport
Old (Alt.):Gilberto Freyre International Airport
ICAO / IATA:SBRF / REC

Details
Type:Airport (Aerodrome, Airfield)
Use:Public/Civil, Military, International (customs port of entry)
Latitude:807'36"S (-8.126793)
Longitude:3455'23"W (-34.923038)
Datum:WGS 1984
Elevation:33 ft (10 m)
Runways:1
Longest:9865 × 148 ft (3007 × 45 m), paved

Time
Time Zone:UTC-3
Local Time:

Weather
METAR:SBRF 240300Z 10010KT 9999 SCT023 BKN060 25/21 Q1017

Related Locations
Nearby:
Farthest:ULI: 12064 mi / 19416 km
Falalop Island, Ulithi Atoll, YAP, FM

Find:

   beyond  
but within

Other Information
Maps:
NOTAMs:
Links:
Sources:

  
flag of Brazil
flag of Pernambuco
flag of Recife
  

Airport Diagram

Airport diagram for REC

Airport diagram (OBSOLETE) from NGA

Sectional Chart

Flight Planning
at skyvector.com

Satellite Image

Google Maps Satellite View

 

Copyright © 2004-2014 Karl L. Swartz. All rights reserved.
The Great Circle Mapper name and logo are trademarks of the Great Circle Mapper.
All other trademarks mentioned herein belong to their respective owners.
Please see credits for attibutions and further copyright information.

  Follow gcmap on Facebook Follow gcmap on Twitter

hCard Microformat

Geo Microformat